createdAt,value
2022-11-26T00:00:17.225Z,236.57
2022-11-26T00:02:47.526Z,233.55
2022-11-26T00:05:18.503Z,249.35
2022-11-26T00:07:57.582Z,225.57
2022-11-26T00:10:27.879Z,237.60
2022-11-26T00:13:00.161Z,236.90
2022-11-26T00:15:31.937Z,233.23
2022-11-26T00:18:01.433Z,239.20
2022-11-26T00:20:32.426Z,223.00
2022-11-26T00:23:05.481Z,224.88
2022-11-26T00:25:40.729Z,226.25
2022-11-26T00:28:30.520Z,224.32
2022-11-26T00:31:03.861Z,239.85
2022-11-26T00:33:34.112Z,232.07
2022-11-26T00:36:14.917Z,229.68
2022-11-26T00:38:44.805Z,228.52
2022-11-26T00:41:19.285Z,238.85
2022-11-26T00:43:49.522Z,224.98
2022-11-26T00:46:22.877Z,230.63
2022-11-26T00:48:53.180Z,228.68
2022-11-26T00:51:26.432Z,237.52
2022-11-26T00:54:00.135Z,230.38
2022-11-26T00:56:33.801Z,220.30
2022-11-26T00:59:07.669Z,242.50
2022-11-26T01:01:38.630Z,222.97
2022-11-26T01:04:09.697Z,222.45
2022-11-26T01:06:42.829Z,227.85
2022-11-26T01:09:19.237Z,231.50
2022-11-26T01:11:53.842Z,235.05
2022-11-26T01:14:25.076Z,225.63
2022-11-26T01:16:58.234Z,213.02
2022-11-26T01:19:28.996Z,208.68
2022-11-26T01:21:58.493Z,212.90
2022-11-26T01:24:28.327Z,216.85
2022-11-26T01:26:58.231Z,230.32
2022-11-26T01:29:29.000Z,229.18
2022-11-26T01:32:00.081Z,224.73
2022-11-26T01:34:30.825Z,226.73
2022-11-26T01:37:00.312Z,208.68
2022-11-26T01:39:31.308Z,215.32
2022-11-26T01:42:08.308Z,214.10
2022-11-26T01:44:38.434Z,226.73
2022-11-26T01:47:23.323Z,208.30
2022-11-26T01:50:52.439Z,215.77
2022-11-26T01:53:32.890Z,216.52
2022-11-26T01:56:05.616Z,204.45
2022-11-26T01:58:40.342Z,194.65
2022-11-26T02:01:09.259Z,204.70
2022-11-26T02:03:50.831Z,200.50
2022-11-26T02:06:25.974Z,203.23
2022-11-26T02:08:56.789Z,209.18
2022-11-26T02:11:26.713Z,212.50
2022-11-26T02:14:01.162Z,203.55
2022-11-26T02:16:57.851Z,203.00
2022-11-26T02:20:27.439Z,217.10
2022-11-26T02:23:59.752Z,212.52
2022-11-26T02:27:19.533Z,216.57
2022-11-26T02:30:08.731Z,207.23
2022-11-26T02:32:55.821Z,210.52
2022-11-26T02:35:32.283Z,206.85
2022-11-26T02:38:06.257Z,205.30
2022-11-26T02:40:37.022Z,210.25
2022-11-26T02:43:05.568Z,211.63
2022-11-26T02:45:40.835Z,213.02
2022-11-26T02:48:16.953Z,212.35
2022-11-26T02:50:51.596Z,212.65
2022-11-26T02:53:26.979Z,259.13
2022-11-26T02:56:04.407Z,230.88
2022-11-26T02:58:35.190Z,214.30
2022-11-26T03:01:11.916Z,229.30
2022-11-26T03:03:46.927Z,229.35
2022-11-26T03:06:19.625Z,224.85
2022-11-26T03:08:49.960Z,224.75
2022-11-26T03:11:19.435Z,210.35
2022-11-26T03:13:49.912Z,222.70
2022-11-26T03:16:22.118Z,207.15
2022-11-26T03:18:51.815Z,221.10
2022-11-26T03:21:21.272Z,205.63
2022-11-26T03:23:51.234Z,209.57
2022-11-26T03:26:20.816Z,213.18
2022-11-26T03:28:51.319Z,210.30
2022-11-26T03:31:22.649Z,203.60
2022-11-26T03:33:50.922Z,218.68
2022-11-26T03:36:20.441Z,206.20
2022-11-26T03:38:49.996Z,219.68
2022-11-26T03:41:19.573Z,213.90
2022-11-26T03:43:49.171Z,214.10
2022-11-26T03:46:20.458Z,209.00
2022-11-26T03:48:50.007Z,206.45
2022-11-26T03:51:20.709Z,207.98
2022-11-26T03:53:49.100Z,224.43
2022-11-26T03:56:18.663Z,208.27
2022-11-26T03:58:46.981Z,205.82
2022-11-26T04:01:15.710Z,207.68
2022-11-26T04:03:46.755Z,213.73
2022-11-26T04:06:17.694Z,205.07
2022-11-26T04:08:46.028Z,211.48
2022-11-26T04:11:17.614Z,211.77
2022-11-26T04:13:47.131Z,206.98
2022-11-26T04:16:17.881Z,209.43
2022-11-26T04:18:48.819Z,229.70
2022-11-26T04:21:18.690Z,210.95
2022-11-26T04:23:48.514Z,207.25
2022-11-26T04:26:19.288Z,211.70
2022-11-26T04:28:50.593Z,204.40
2022-11-26T04:31:21.587Z,201.68
2022-11-26T04:33:53.088Z,208.13
2022-11-26T04:36:24.127Z,205.70
2022-11-26T04:38:53.583Z,226.52
2022-11-26T04:41:21.868Z,207.48
2022-11-26T04:43:51.670Z,207.25
2022-11-26T04:46:21.235Z,216.98
2022-11-26T04:48:52.123Z,209.15
2022-11-26T04:51:21.632Z,215.95
2022-11-26T04:53:51.414Z,217.18
2022-11-26T04:56:25.888Z,206.30
2022-11-26T04:58:54.134Z,218.52
2022-11-26T05:01:23.746Z,208.18
2022-11-26T05:03:54.594Z,208.27
2022-11-26T05:06:24.173Z,210.52
2022-11-26T05:08:53.653Z,253.55
2022-11-26T05:11:24.428Z,221.40
2022-11-26T05:13:52.717Z,246.43
2022-11-26T05:16:21.119Z,221.60
2022-11-26T05:18:51.008Z,209.40
2022-11-26T05:21:23.083Z,214.95
2022-11-26T05:23:52.713Z,213.60
2022-11-26T05:26:23.780Z,211.38
2022-11-26T05:28:53.331Z,215.65
2022-11-26T05:31:21.783Z,267.08
2022-11-26T05:33:51.369Z,231.63
2022-11-26T05:36:22.254Z,237.38
2022-11-26T05:38:50.556Z,239.32
2022-11-26T05:41:20.112Z,221.43
2022-11-26T05:43:48.628Z,220.02
2022-11-26T05:46:20.262Z,220.70
2022-11-26T05:48:49.961Z,209.45
2022-11-26T05:51:22.493Z,203.27
2022-11-26T05:53:50.773Z,210.20
2022-11-26T05:56:20.324Z,207.88
2022-11-26T05:58:49.800Z,209.88
2022-11-26T06:01:18.400Z,220.18
2022-11-26T06:03:48.072Z,212.45
2022-11-26T06:06:17.955Z,206.07
2022-11-26T06:08:47.579Z,201.18
2022-11-26T06:11:17.355Z,210.98
2022-11-26T06:13:45.683Z,205.90
2022-11-26T06:16:14.481Z,208.18
2022-11-26T06:18:42.861Z,205.27
2022-11-26T06:21:12.601Z,205.88
2022-11-26T06:23:49.661Z,205.50
2022-11-26T06:26:22.727Z,224.98
2022-11-26T06:28:51.073Z,210.80
2022-11-26T06:31:20.619Z,219.73
2022-11-26T06:33:54.549Z,203.88
2022-11-26T06:36:24.487Z,209.40
2022-11-26T06:38:53.097Z,207.90
2022-11-26T06:41:23.123Z,206.05
2022-11-26T06:43:51.450Z,206.93
2022-11-26T06:46:20.205Z,212.98
2022-11-26T06:48:49.738Z,207.13
2022-11-26T06:51:21.687Z,200.75
2022-11-26T06:53:51.138Z,205.13
2022-11-26T06:56:23.520Z,195.65
2022-11-26T06:58:56.090Z,196.02
2022-11-26T07:01:27.159Z,197.50
2022-11-26T07:03:56.836Z,193.45
2022-11-26T07:06:30.340Z,191.52
2022-11-26T07:09:05.350Z,186.65
2022-11-26T07:11:37.234Z,186.05
2022-11-26T07:14:05.605Z,199.55
2022-11-26T07:16:34.136Z,205.90
2022-11-26T07:19:03.853Z,193.88
2022-11-26T07:21:33.683Z,196.00
2022-11-26T07:24:03.214Z,190.13
2022-11-26T07:26:32.856Z,176.52
2022-11-26T07:29:02.568Z,188.07
2022-11-26T07:31:30.942Z,185.95
2022-11-26T07:34:00.562Z,190.18
2022-11-26T07:36:33.042Z,190.68
2022-11-26T07:39:04.398Z,191.85
2022-11-26T07:41:33.994Z,211.45
2022-11-26T07:44:05.296Z,195.18
2022-11-26T07:46:35.206Z,189.30
2022-11-26T07:49:03.650Z,187.38
2022-11-26T07:51:36.752Z,186.77
2022-11-26T07:54:08.950Z,190.10
2022-11-26T07:56:37.503Z,183.45
2022-11-26T07:59:07.582Z,187.32
2022-11-26T08:01:38.825Z,182.35
2022-11-26T08:04:08.408Z,184.85
2022-11-26T08:06:36.865Z,202.88
2022-11-26T08:09:07.691Z,191.18
2022-11-26T08:11:37.211Z,191.90
2022-11-26T08:14:10.394Z,204.38
2022-11-26T08:16:40.360Z,189.05
2022-11-26T08:19:14.411Z,183.82
2022-11-26T08:21:43.975Z,177.07
2022-11-26T08:24:17.338Z,186.48
2022-11-26T08:29:18.116Z,187.63
2022-11-26T08:31:50.201Z,184.85
2022-11-26T08:36:50.906Z,189.23
2022-11-26T08:39:19.857Z,183.13
2022-11-26T08:41:51.915Z,192.25
2022-11-26T08:44:23.707Z,187.73
2022-11-26T08:46:52.340Z,181.50
2022-11-26T08:49:22.370Z,186.40
2022-11-26T08:51:52.281Z,186.70
2022-11-26T08:54:21.002Z,183.15
2022-11-26T08:56:50.535Z,187.52
2022-11-26T08:59:20.654Z,187.00
2022-11-26T09:01:51.235Z,185.15
2022-11-26T09:04:21.126Z,186.52
2022-11-26T09:06:51.882Z,186.35
2022-11-26T09:09:20.483Z,186.55
2022-11-26T09:11:55.105Z,203.38
2022-11-26T09:14:27.126Z,209.88
2022-11-26T09:17:00.006Z,198.75
2022-11-26T09:19:30.109Z,196.35
2022-11-26T09:22:00.470Z,202.80
2022-11-26T09:24:30.056Z,195.30
2022-11-26T09:27:02.814Z,202.95
2022-11-26T09:29:34.304Z,202.95
2022-11-26T09:34:56.066Z,198.10
2022-11-26T09:37:26.265Z,203.07
2022-11-26T09:39:56.127Z,201.88
2022-11-26T09:42:45.523Z,203.45
2022-11-26T09:45:29.808Z,204.20
2022-11-26T09:47:59.872Z,199.63
2022-11-26T09:50:31.686Z,200.02
2022-11-26T09:53:04.347Z,197.45
2022-11-26T09:55:35.343Z,208.43
2022-11-26T09:58:13.297Z,210.00
2022-11-26T10:00:47.043Z,217.70
2022-11-26T10:03:19.849Z,211.10
2022-11-26T10:05:58.175Z,214.95
2022-11-26T10:09:03.750Z,211.50
2022-11-26T10:11:42.402Z,216.35
2022-11-26T10:14:31.074Z,215.82
2022-11-26T10:17:21.998Z,220.23
2022-11-26T10:20:09.113Z,215.38
2022-11-26T10:22:46.296Z,224.35
2022-11-26T10:25:19.853Z,212.90
2022-11-26T10:27:51.961Z,219.00
2022-11-26T10:32:52.921Z,218.13
2022-11-26T10:35:27.367Z,226.50
2022-11-26T10:37:59.380Z,225.85
2022-11-26T10:40:30.445Z,219.55
2022-11-26T10:43:13.902Z,225.25
2022-11-26T10:48:22.388Z,223.13
2022-11-26T10:51:07.436Z,229.30
2022-11-26T10:53:56.000Z,227.85
2022-11-26T10:56:34.627Z,237.75
2022-11-26T10:59:05.895Z,223.10
2022-11-26T11:01:39.235Z,223.27
2022-11-26T11:04:28.674Z,217.27
2022-11-26T11:07:00.544Z,225.43
2022-11-26T11:09:34.183Z,216.48
2022-11-26T11:12:24.669Z,224.98
2022-11-26T11:14:54.230Z,230.93
2022-11-26T11:17:35.714Z,231.93
2022-11-26T11:20:24.258Z,222.15
2022-11-26T11:23:06.841Z,230.05
2022-11-26T11:25:39.205Z,226.27
2022-11-26T11:28:17.941Z,225.60
2022-11-26T11:30:58.650Z,230.32
2022-11-26T11:33:31.840Z,219.50
2022-11-26T11:36:26.141Z,236.52
2022-11-26T11:38:58.818Z,374.75
2022-11-26T11:41:34.517Z,142.63
2022-11-26T11:44:08.502Z,471.33
2022-11-26T11:47:11.269Z,229.52
2022-11-26T11:49:56.821Z,239.32
2022-11-26T11:52:39.760Z,232.93
2022-11-26T11:55:23.307Z,549.28
2022-11-26T11:58:22.980Z,538.03
2022-11-26T12:00:57.673Z,503.15
2022-11-26T12:04:02.543Z,535.38
2022-11-26T12:06:41.408Z,559.38
2022-11-26T12:09:25.261Z,564.92
2022-11-26T12:12:00.191Z,562.65
2022-11-26T12:14:37.193Z,227.13
2022-11-26T12:17:09.427Z,186.20
2022-11-26T12:19:42.331Z,180.35
2022-11-26T12:22:19.988Z,299.98
2022-11-26T12:24:53.919Z,230.02
2022-11-26T12:27:34.954Z,292.33
2022-11-26T12:30:08.694Z,317.83
2022-11-26T12:32:47.236Z,206.38
2022-11-26T12:35:27.688Z,208.05
2022-11-26T12:38:04.532Z,244.75
2022-11-26T12:40:38.752Z,206.63
2022-11-26T12:43:18.524Z,204.50
2022-11-26T12:45:53.720Z,193.63
2022-11-26T12:48:40.113Z,185.50
2022-11-26T12:51:22.206Z,167.48
2022-11-26T12:53:59.315Z,174.85
2022-11-26T12:56:34.806Z,203.27
2022-11-26T12:59:14.716Z,196.60
2022-11-26T13:01:44.313Z,273.50
2022-11-26T13:04:36.809Z,198.63
2022-11-26T13:07:16.637Z,211.05
2022-11-26T13:10:06.723Z,216.43
2022-11-26T13:12:49.372Z,219.35
2022-11-26T13:15:26.709Z,222.07
2022-11-26T13:18:00.620Z,236.13
2022-11-26T13:20:48.252Z,214.95
2022-11-26T13:23:37.495Z,224.07
2022-11-26T13:26:23.230Z,223.55
2022-11-26T13:29:07.582Z,223.65
2022-11-26T13:31:56.248Z,216.02
2022-11-26T13:34:44.356Z,220.63
2022-11-26T13:37:43.126Z,214.38
2022-11-26T13:40:58.427Z,205.65
2022-11-26T13:44:11.441Z,211.50
2022-11-26T13:46:47.712Z,216.05
2022-11-26T13:49:23.576Z,232.07
2022-11-26T13:51:57.901Z,220.27
2022-11-26T13:54:31.521Z,214.60
2022-11-26T13:57:05.598Z,221.40
2022-11-26T13:59:36.791Z,214.75
2022-11-26T14:02:43.427Z,230.68
2022-11-26T14:05:15.558Z,236.27
2022-11-26T14:10:43.389Z,230.52
2022-11-26T14:13:17.275Z,225.10
2022-11-26T14:15:57.742Z,221.70
2022-11-26T14:19:01.719Z,227.15
2022-11-26T14:21:31.690Z,221.52
2022-11-26T14:24:04.410Z,224.18
2022-11-26T14:26:37.608Z,221.80
2022-11-26T14:29:18.700Z,218.38
2022-11-26T14:31:52.804Z,222.00
2022-11-26T14:34:30.603Z,225.73
2022-11-26T14:37:01.901Z,219.55
2022-11-26T14:39:32.721Z,221.43
2022-11-26T14:42:06.351Z,210.95
2022-11-26T14:44:36.663Z,206.88
2022-11-26T14:47:17.352Z,210.43
2022-11-26T14:49:54.187Z,215.27
2022-11-26T14:52:29.221Z,218.15
2022-11-26T14:55:01.598Z,208.90
2022-11-26T14:57:42.898Z,210.97
2022-11-26T15:00:24.665Z,213.13
2022-11-26T15:02:54.389Z,220.57
2022-11-26T15:05:27.531Z,226.32
2022-11-26T15:08:02.118Z,216.15
2022-11-26T15:10:35.687Z,222.75
2022-11-26T15:13:19.701Z,222.98
2022-11-26T15:15:53.563Z,223.80
2022-11-26T15:18:30.024Z,222.70
2022-11-26T15:21:03.255Z,223.88
2022-11-26T15:23:37.687Z,226.40
2022-11-26T15:26:08.250Z,220.93
2022-11-26T15:28:41.006Z,220.80
2022-11-26T15:31:10.154Z,217.23
2022-11-26T15:33:41.815Z,207.05
2022-11-26T15:36:17.357Z,210.73
2022-11-26T15:39:03.030Z,210.75
2022-11-26T15:41:32.050Z,210.13
2022-11-26T15:44:02.005Z,219.52
2022-11-26T15:46:35.058Z,222.68
2022-11-26T15:49:08.137Z,223.70
2022-11-26T15:51:43.239Z,222.07
2022-11-26T15:54:30.865Z,223.43
2022-11-26T15:57:24.823Z,213.25
2022-11-26T16:00:01.125Z,210.85
2022-11-26T16:02:33.218Z,223.52
2022-11-26T16:05:03.230Z,226.30
2022-11-26T16:07:34.955Z,221.13
2022-11-26T16:10:25.866Z,216.95
2022-11-26T16:13:22.939Z,219.68
2022-11-26T16:15:57.847Z,216.43
2022-11-26T16:18:37.910Z,214.93
2022-11-26T16:21:09.542Z,214.32
2022-11-26T16:23:42.750Z,226.75
2022-11-26T16:26:19.448Z,223.07
2022-11-26T16:28:49.969Z,224.00
2022-11-26T16:31:20.172Z,219.23
2022-11-26T16:33:51.219Z,215.10
2022-11-26T16:36:24.629Z,220.63
2022-11-26T16:38:56.258Z,225.85
2022-11-26T16:41:25.166Z,292.20
2022-11-26T16:43:53.509Z,252.35
2022-11-26T16:46:24.861Z,251.75
2022-11-26T16:48:53.493Z,249.43
2022-11-26T16:51:23.700Z,254.25
2022-11-26T16:53:55.732Z,394.65
2022-11-26T16:56:26.661Z,391.38
2022-11-26T17:01:28.517Z,372.00
2022-11-26T17:03:58.092Z,322.02
2022-11-26T17:06:30.208Z,268.80
2022-11-26T17:09:01.640Z,261.52
2022-11-26T17:11:31.469Z,250.00
2022-11-26T17:14:00.035Z,247.52
2022-11-26T17:16:29.164Z,242.98
2022-11-26T17:18:58.656Z,280.02
2022-11-26T17:21:28.445Z,264.33
2022-11-26T17:23:57.930Z,272.65
2022-11-26T17:26:27.603Z,259.83
2022-11-26T17:28:57.062Z,264.33
2022-11-26T17:31:26.926Z,273.10
2022-11-26T17:33:56.474Z,264.10
2022-11-26T17:36:25.570Z,264.30
2022-11-26T17:38:55.146Z,260.55
2022-11-26T17:41:24.604Z,281.98
2022-11-26T17:43:55.402Z,254.73
2022-11-26T17:46:23.904Z,242.10
2022-11-26T17:48:59.393Z,227.15
2022-11-26T17:51:29.379Z,231.25
2022-11-26T17:53:58.072Z,239.95
2022-11-26T17:56:28.046Z,247.45
2022-11-26T17:59:03.844Z,259.67
2022-11-26T18:01:33.640Z,249.73
2022-11-26T18:04:04.755Z,235.82
2022-11-26T18:06:46.062Z,220.82
2022-11-26T18:09:16.752Z,224.90
2022-11-26T18:11:50.332Z,222.60
2022-11-26T18:14:20.330Z,223.88
2022-11-26T18:16:50.439Z,236.63
2022-11-26T18:19:22.844Z,231.80
2022-11-26T18:21:52.578Z,236.77
2022-11-26T18:24:23.395Z,232.75
2022-11-26T18:26:56.242Z,228.90
2022-11-26T18:29:31.407Z,245.55
2022-11-26T18:32:00.822Z,237.82
2022-11-26T18:34:30.264Z,226.68
2022-11-26T18:37:00.054Z,223.45
2022-11-26T18:39:29.568Z,219.63
2022-11-26T18:42:29.571Z,230.38
2022-11-26T18:44:49.855Z,225.60
2022-11-26T18:47:19.262Z,216.82
2022-11-26T18:49:49.405Z,209.82
2022-11-26T18:52:19.182Z,209.32
2022-11-26T18:54:50.139Z,208.85
2022-11-26T18:57:19.512Z,209.85
2022-11-26T18:59:50.602Z,215.30
2022-11-26T19:02:20.536Z,210.50
2022-11-26T19:04:49.158Z,204.30
2022-11-26T19:07:18.662Z,210.90
2022-11-26T19:09:49.654Z,208.77
2022-11-26T19:12:17.915Z,208.45
2022-11-26T19:14:48.484Z,202.70
2022-11-26T19:17:19.366Z,205.57
2022-11-26T19:19:49.231Z,238.10
2022-11-26T19:22:17.488Z,221.90
2022-11-26T19:24:47.096Z,218.48
2022-11-26T19:27:15.320Z,210.02
2022-11-26T19:29:44.837Z,225.73
2022-11-26T19:32:14.277Z,213.27
2022-11-26T19:34:45.145Z,208.80
2022-11-26T19:37:13.428Z,209.18
2022-11-26T19:39:44.078Z,206.45
2022-11-26T19:42:13.513Z,211.32
2022-11-26T19:44:43.335Z,211.88
2022-11-26T19:47:12.815Z,209.82
2022-11-26T19:49:44.832Z,196.43
2022-11-26T19:52:14.272Z,191.13
2022-11-26T19:54:43.692Z,195.10
2022-11-26T19:57:13.527Z,207.82
2022-11-26T19:59:43.036Z,195.07
2022-11-26T20:02:12.929Z,197.93
2022-11-26T20:04:45.245Z,192.63
2022-11-26T20:09:44.225Z,196.25
2022-11-26T20:12:13.674Z,199.65
2022-11-26T20:14:43.225Z,202.38
2022-11-26T20:17:12.702Z,223.38
2022-11-26T20:19:42.413Z,216.35
2022-11-26T20:22:12.543Z,208.80
2022-11-26T20:24:42.974Z,210.52
2022-11-26T20:27:11.306Z,201.57
2022-11-26T20:29:41.979Z,194.95
2022-11-26T20:32:11.518Z,194.68
2022-11-26T20:34:40.123Z,178.50
2022-11-26T20:37:08.339Z,178.38
2022-11-26T20:39:38.210Z,189.98
2022-11-26T20:42:08.036Z,192.85
2022-11-26T20:44:37.560Z,189.70
2022-11-26T20:47:07.012Z,200.95
2022-11-26T20:49:42.985Z,202.98
2022-11-26T20:52:11.723Z,203.88
2022-11-26T20:54:42.588Z,199.93
2022-11-26T20:57:12.012Z,194.70
2022-11-26T20:59:41.824Z,209.15
2022-11-26T21:02:12.145Z,205.70
2022-11-26T21:04:40.459Z,207.25
2022-11-26T21:07:08.707Z,201.18
2022-11-26T21:09:38.389Z,202.15
2022-11-26T21:12:09.502Z,209.93
2022-11-26T21:14:40.162Z,205.77
2022-11-26T21:17:08.615Z,201.15
2022-11-26T21:19:38.658Z,197.57
2022-11-26T21:22:08.217Z,198.35
2022-11-26T21:24:38.453Z,210.55
2022-11-26T21:27:06.696Z,210.45
2022-11-26T21:29:38.851Z,202.98
2022-11-26T21:32:07.562Z,192.15
2022-11-26T21:34:35.816Z,192.90
2022-11-26T21:37:04.015Z,205.75
2022-11-26T21:39:33.780Z,211.60
2022-11-26T21:42:03.228Z,209.55
2022-11-26T21:44:32.747Z,228.88
2022-11-26T21:47:03.815Z,219.88
2022-11-26T21:49:33.470Z,213.38
2022-11-26T21:52:03.199Z,224.20
2022-11-26T21:54:34.039Z,216.93
2022-11-26T21:57:02.261Z,214.55
2022-11-26T21:59:30.979Z,208.35
2022-11-26T22:01:59.256Z,205.07
2022-11-26T22:04:28.966Z,205.48
2022-11-26T22:06:58.599Z,204.98
2022-11-26T22:09:28.145Z,205.27
2022-11-26T22:11:57.642Z,197.85
2022-11-26T22:14:26.105Z,223.35
2022-11-26T22:16:55.142Z,221.30
2022-11-26T22:19:25.975Z,218.57
2022-11-26T22:21:56.791Z,203.77
2022-11-26T22:24:25.208Z,195.50
2022-11-26T22:26:55.062Z,191.30
2022-11-26T22:29:25.147Z,206.77
2022-11-26T22:31:54.613Z,200.85
2022-11-26T22:34:26.139Z,202.48
2022-11-26T22:36:57.286Z,210.88
2022-11-26T22:39:27.876Z,196.68
2022-11-26T22:41:56.132Z,199.38
2022-11-26T22:44:25.862Z,183.07
2022-11-26T22:46:55.349Z,182.93
2022-11-26T22:49:25.608Z,186.32
2022-11-26T22:51:53.827Z,200.45
2022-11-26T22:54:24.867Z,189.57
2022-11-26T22:56:54.411Z,183.07
2022-11-26T22:59:22.725Z,177.60
2022-11-26T23:01:56.878Z,191.02
2022-11-26T23:04:27.428Z,187.27
2022-11-26T23:06:58.074Z,185.70
2022-11-26T23:09:27.663Z,187.23
2022-11-26T23:11:57.135Z,186.43
2022-11-26T23:14:26.569Z,194.50
2022-11-26T23:16:55.994Z,189.27
2022-11-26T23:19:24.205Z,195.18
2022-11-26T23:21:54.805Z,203.00
2022-11-26T23:24:24.248Z,197.02
2022-11-26T23:26:55.161Z,180.32
2022-11-26T23:29:24.617Z,188.80
2022-11-26T23:31:54.146Z,185.25
2022-11-26T23:34:23.646Z,175.38
2022-11-26T23:36:53.062Z,180.73
2022-11-26T23:39:22.533Z,190.38
2022-11-26T23:41:52.024Z,186.55
2022-11-26T23:44:23.085Z,188.25
2022-11-26T23:46:51.411Z,183.35
2022-11-26T23:49:22.821Z,187.27
2022-11-26T23:51:52.383Z,196.65
2022-11-26T23:54:22.138Z,434.58
2022-11-26T23:56:51.635Z,498.52
2022-11-26T23:59:22.773Z,481.73
